Flight Track Log - Related Links

Times and Time Zones

All times are in EDT time to prevent confusion due to time zone crossing. See the XOJ552 flight status page for this flight to view local times or setup timezone preferences in your user account.

Time Position Orientation Groundspeed Altitude Reporting Facility
EDT Latitude Longitude Course Direction KTS MPH feet Rate Location/Type
Sat 03:49:37 PM 33.6500 -117.8833 66° East 155 178 1,100  Level Southern California TRACON
Sat 03:50:32 PM 33.6000 -117.9000 196° South 221 254 4,100 2,533 Climbing Southern California TRACON
Sat 03:51:52 PM 33.5467 -117.8392 136° Southeast 264 304 6,800 2,596 Climbing Los Angeles Center
Sat 03:52:53 PM 33.5589 -117.7392 82° East 299 344 10,200 3,122 Climbing Los Angeles Center
Sat 03:53:55 PM 33.5719 -117.6069 83° East 328 377 13,200 2,661 Climbing Los Angeles Center
Sat 03:54:57 PM 33.5828 -117.4850 84° East 363 418 15,700 2,468 Climbing Los Angeles Center
Sat 03:55:00 PM 33.5599 -117.4847 66° East  Level FlightAware Approximate
Sat 03:55:59 PM 33.5886 -117.3561 87° East 386 444 18,300  Level Los Angeles Center
Sat 03:57:01 PM 33.5936 -117.2214 87° East 402 463 20,800 2,341 Climbing Los Angeles Center
Sat 03:58:02 PM 33.5994 -117.0842 87° East 411 473 23,100 1,073 Climbing Los Angeles Center
Sat 03:59:04 PM 33.6036 -116.9342 88° East 447 514 23,000 -48 Descending Los Angeles Center
Sat 04:00:06 PM 33.6217 -116.7783 82° East 484 557 23,000 -48 Level Los Angeles Center
Sat 04:01:08 PM 33.7267 -116.6294 50° Northeast 492 566 22,900  Descending Los Angeles Center
Sat 04:02:10 PM 33.8317 -116.5225 40° Northeast 493 567 23,000 48 Climbing Los Angeles Center
Sat 04:03:12 PM 33.9350 -116.4181 40° Northeast 490 564 23,000  Level Los Angeles Center
Sat 04:04:13 PM 34.0386 -116.3125 40° Northeast 488 562 23,000  Level Los Angeles Center
Sat 04:05:15 PM 34.1400 -116.2100 40° Northeast 482 555 23,000  Level Los Angeles Center
Sat 04:06:17 PM 34.2400 -116.1031 41° Northeast 482 555 23,000  Level Los Angeles Center
Sat 04:07:19 PM 34.3303 -115.9861 47° Northeast 489 563 23,000  Level Los Angeles Center
Sat 04:08:21 PM 34.4075 -115.8206 60° Northeast 476 548 23,000  Level Los Angeles Center
Sat 04:09:23 PM 34.4717 -115.6825 61° Northeast 474 545 23,000  Level Los Angeles Center
Sat 04:10:25 PM 34.5422 -115.5294 61° Northeast 477 549 23,000  Level Los Angeles Center
Sat 04:11:27 PM 34.6056 -115.3914 61° Northeast 472 543 23,000  Level Los Angeles Center
Sat 04:12:28 PM 34.6700 -115.2522 61° Northeast 474 545 23,000  Level Los Angeles Center
Sat 04:13:30 PM 34.7328 -115.1144 61° Northeast 470 541 23,000  Level Los Angeles Center
Sat 04:14:32 PM 34.7953 -114.9764 61° Northeast 468 539 23,000  Level Los Angeles Center
Sat 04:15:34 PM 34.8581 -114.8369 61° Northeast 472 543 23,000 -774 Level Los Angeles Center
Sat 04:16:36 PM 34.9325 -114.6722 61° Northeast 465 535 21,400 -1,500 Descending Los Angeles Center
Sat 04:17:38 PM 34.9906 -114.5436 61° Northeast 440 506 19,900 -1,500 Descending Los Angeles Center
Sat 04:18:40 PM 35.0547 -114.4250 57° Northeast 427 491 18,300 -1,452 Descending Los Angeles Center
Sat 04:19:42 PM 35.1625 -114.3931 14° North 416 479 16,900 -1,161 Descending Los Angeles Center
Sat 04:20:44 PM 35.2744 -114.3900 North 404 465 15,900 -968 Descending Los Angeles Center
Sat 04:21:46 PM 35.3850 -114.3872 North 399 459 14,900 -1,113 Descending Los Angeles Center
Sat 04:22:48 PM 35.4981 -114.3872 360° North 353 406 13,600 -1,125 Descending Los Angeles Center
Sat 04:23:22 PM 35.5508 -114.3878 360° North 345 397 13,100 -1,023 Descending Los Angeles Center
Sat 04:24:16 PM 35.6356 -114.3883 360° North 337 388 12,100 -742 Descending Los Angeles Center
Sat 04:24:51 PM 35.6842 -114.3836 North 335 386 12,000 -207 Descending Los Angeles Center
Sat 04:26:12 PM 35.8042 -114.4164 348° North 326 375 11,700 -484 Descending Los Angeles Center
Sat 04:26:55 PM 35.8544 -114.4369 342° North 322 371 11,000 -971 Descending Los Angeles Center
Sat 04:27:57 PM 35.9381 -114.4711 342° North 318 366 10,000 -484 Descending Los Angeles Center
Sat 04:28:59 PM 36.0389 -114.5106 342° North 317 365 10,000 -968 Level Los Angeles Center
Sat 04:30:01 PM 36.1231 -114.5458 341° North 318 366 8,000 -1,282 Descending Los Angeles Center
Sat 04:31:10 PM 36.1428 -114.6639 282° West 290 334 7,200 -462 Descending Los Angeles Center
Sat 04:32:11 PM 36.1383 -114.7614 267° West 284 327 7,000 -885 Descending Los Angeles Center
Sat 04:33:12 PM 36.1364 -114.8606 269° West 284 327 5,400 -831 Descending Los Angeles Center
Sat 04:34:21 PM 36.1317 -114.9542 266° West 285 328 5,200 -417 Descending Los Angeles Center
Sat 04:35:07 PM 36.1350 -115.0317 273° West 243 280 4,600 -841 Descending Los Angeles Center
Sat 04:36:08 PM 36.1364 -115.0978 272° West 187 215 3,700 -942 Descending Los Angeles Center
Sat 04:37:08 PM 36.1189 -115.1461 246° West 150 173 2,700 -1,000 Descending Los Angeles Center
Sat 04:39:00 PM 36.0801 -115.1523 270° West  Level Estimated
Sat 04:46:00 PM 36.0801 -115.1523 270° West  Level Estimated

Login

Don't have an account? Register now (free) for customized features, flight alerts, and more!